THA199 VTBS-VTCC
Flight info
| Callsign | THA199 |
|---|---|
| Flight time | 1h 0m |
| Altitude | 38000 |
| Route | OLVUK1J OLVUK Y26 MARNI MARNI2A |
| Aircraft | A346/H-SDE2E3FGHIJ3J4J5M1RWXY/LB1D1 |
Departure
| Time | 2026-04-25 07:14 |
|---|---|
| Airport | Suvarnabhumi Airport (VTBS) |
Arrival
| Time | 2026-04-25 08:15 |
|---|---|
| Airport | Chiang Mai International Airport (VTCC) |
| Time | Latitude | Longitude | Altitude | Speed | Heading |
|---|---|---|---|---|---|
| 2026-04-25 06:40 | 13.69383 | 100.75598 | 21 ft | 0 kts | 281° |
| 2026-04-25 07:01 | 13.69383 | 100.75605 | 21 ft | 2 kts | 277° |
| 2026-04-25 07:01 | 13.69381 | 100.75614 | 21 ft | 2 kts | 285° |
| 2026-04-25 07:01 | 13.69379 | 100.75630 | 21 ft | 2 kts | 260° |
| 2026-04-25 07:01 | 13.69384 | 100.75645 | 21 ft | 2 kts | 242° |
| 2026-04-25 07:02 | 13.69393 | 100.75657 | 21 ft | 2 kts | 227° |
| 2026-04-25 07:02 | 13.69404 | 100.75667 | 21 ft | 2 kts | 211° |
| 2026-04-25 07:02 | 13.69417 | 100.75673 | 21 ft | 1 kts | 196° |
| 2026-04-25 07:02 | 13.69420 | 100.75674 | 21 ft | 0 kts | 193° |
| 2026-04-25 07:05 | 13.69404 | 100.75669 | 21 ft | 10 kts | 197° |
| 2026-04-25 07:05 | 13.69337 | 100.75648 | 21 ft | 15 kts | 194° |
| 2026-04-25 07:07 | 13.69176 | 100.75629 | 24 ft | 0 kts | 95° |
| 2026-04-25 07:08 | 13.69141 | 100.75729 | 24 ft | 22 kts | 120° |
| 2026-04-25 07:09 | 13.69048 | 100.75790 | 24 ft | 9 kts | 184° |
| 2026-04-25 07:09 | 13.68913 | 100.75754 | 25 ft | 28 kts | 194° |
| 2026-04-25 07:09 | 13.68704 | 100.75700 | 25 ft | 39 kts | 194° |
| 2026-04-25 07:09 | 13.68473 | 100.75605 | 25 ft | 38 kts | 237° |
| 2026-04-25 07:10 | 13.68535 | 100.75344 | 25 ft | 32 kts | 283° |
| 2026-04-25 07:10 | 13.68600 | 100.75098 | 25 ft | 44 kts | 288° |
| 2026-04-25 07:10 | 13.68673 | 100.74790 | 24 ft | 36 kts | 284° |
| 2026-04-25 07:10 | 13.68733 | 100.74554 | 25 ft | 34 kts | 284° |
| 2026-04-25 07:11 | 13.68802 | 100.74284 | 24 ft | 33 kts | 285° |
| 2026-04-25 07:11 | 13.68886 | 100.74213 | 24 ft | 9 kts | 2° |
| 2026-04-25 07:11 | 13.69018 | 100.74253 | 25 ft | 29 kts | 15° |
| 2026-04-25 07:11 | 13.69262 | 100.74316 | 24 ft | 37 kts | 18° |
| 2026-04-25 07:12 | 13.69570 | 100.74398 | 25 ft | 54 kts | 14° |
| 2026-04-25 07:12 | 13.70216 | 100.74571 | 21 ft | 15 kts | 1° |
| 2026-04-25 07:12 | 13.70238 | 100.74571 | 21 ft | 0 kts | 358° |
| 2026-04-25 07:13 | 13.70244 | 100.74571 | 21 ft | 0 kts | 353° |
| 2026-04-25 07:13 | 13.70303 | 100.74541 | 21 ft | 20 kts | 316° |
| 2026-04-25 07:13 | 13.70339 | 100.74412 | 21 ft | 19 kts | 269° |
| 2026-04-25 07:13 | 13.70251 | 100.74293 | 22 ft | 29 kts | 198° |
| 2026-04-25 07:14 | 13.69962 | 100.74206 | 25 ft | 74 kts | 199° |
| 2026-04-25 07:14 | 13.69153 | 100.73997 | 25 ft | 157 kts | 197° |
| 2026-04-25 07:14 | 13.68003 | 100.73684 | 597 ft | 178 kts | 194° |
| 2026-04-25 07:14 | 13.66896 | 100.73164 | 1480 ft | 186 kts | 217° |
| 2026-04-25 07:15 | 13.65730 | 100.72507 | 2325 ft | 205 kts | 189° |
| 2026-04-25 07:15 | 13.64264 | 100.72369 | 3222 ft | 224 kts | 188° |
| 2026-04-25 07:15 | 13.62687 | 100.72095 | 4126 ft | 243 kts | 190° |
| 2026-04-25 07:15 | 13.60988 | 100.71757 | 5006 ft | 263 kts | 192° |
| 2026-04-25 07:16 | 13.59109 | 100.71326 | 5661 ft | 293 kts | 193° |
| 2026-04-25 07:16 | 13.57001 | 100.70798 | 6019 ft | 332 kts | 194° |
| 2026-04-25 07:16 | 13.54749 | 100.69854 | 6184 ft | 373 kts | 217° |
| 2026-04-25 07:16 | 13.52747 | 100.68250 | 7826 ft | 368 kts | 218° |
| 2026-04-25 07:17 | 13.50770 | 100.66672 | 9489 ft | 362 kts | 218° |
| 2026-04-25 07:17 | 13.48822 | 100.65134 | 11176 ft | 353 kts | 217° |
| 2026-04-25 07:17 | 13.46959 | 100.63678 | 12849 ft | 341 kts | 217° |
| 2026-04-25 07:17 | 13.45142 | 100.62271 | 14530 ft | 325 kts | 217° |
| 2026-04-25 07:18 | 13.43406 | 100.60941 | 16150 ft | 306 kts | 217° |
| 2026-04-25 07:18 | 13.41757 | 100.59748 | 17490 ft | 292 kts | 207° |
| 2026-04-25 07:18 | 13.39819 | 100.59103 | 18038 ft | 305 kts | 184° |
| 2026-04-25 07:18 | 13.37664 | 100.59361 | 18391 ft | 323 kts | 158° |
| 2026-04-25 07:19 | 13.35682 | 100.60544 | 18728 ft | 341 kts | 146° |
| 2026-04-25 07:19 | 13.33709 | 100.61994 | 19040 ft | 359 kts | 139° |
| 2026-04-25 07:19 | 13.31996 | 100.63921 | 19329 ft | 377 kts | 123° |
| 2026-04-25 07:19 | 13.30868 | 100.66421 | 19618 ft | 394 kts | 105° |
| 2026-04-25 07:20 | 13.30549 | 100.69252 | 19904 ft | 411 kts | 86° |
| 2026-04-25 07:20 | 13.31132 | 100.72134 | 20245 ft | 426 kts | 68° |
| 2026-04-25 07:20 | 13.32633 | 100.74760 | 20875 ft | 432 kts | 50° |
| 2026-04-25 07:20 | 13.34906 | 100.76799 | 21636 ft | 436 kts | 31° |
| 2026-04-25 07:21 | 13.36714 | 100.77690 | 22124 ft | 438 kts | 19° |
| 2026-04-25 07:21 | 13.43657 | 100.77382 | 23648 ft | 448 kts | 335° |
| 2026-04-25 07:21 | 13.46212 | 100.75641 | 24271 ft | 452 kts | 318° |
| 2026-04-25 07:22 | 13.48512 | 100.73419 | 24935 ft | 456 kts | 316° |
| 2026-04-25 07:22 | 13.50831 | 100.71130 | 25539 ft | 461 kts | 316° |
| 2026-04-25 07:22 | 13.53112 | 100.68878 | 26118 ft | 465 kts | 316° |
| 2026-04-25 07:22 | 13.55475 | 100.66553 | 26710 ft | 469 kts | 316° |
| 2026-04-25 07:23 | 13.57830 | 100.64244 | 27303 ft | 473 kts | 316° |
| 2026-04-25 07:23 | 13.60211 | 100.61914 | 28089 ft | 471 kts | 316° |
| 2026-04-25 07:23 | 13.62666 | 100.59726 | 28894 ft | 468 kts | 326° |
| 2026-04-25 07:23 | 13.65499 | 100.58235 | 29585 ft | 466 kts | 341° |
| 2026-04-25 07:24 | 13.68652 | 100.57542 | 30238 ft | 464 kts | 354° |
| 2026-04-25 07:24 | 13.71876 | 100.57269 | 30900 ft | 463 kts | 354° |
| 2026-04-25 07:24 | 13.75048 | 100.56831 | 31516 ft | 462 kts | 349° |
| 2026-04-25 07:24 | 13.78154 | 100.56102 | 32102 ft | 461 kts | 344° |
| 2026-04-25 07:25 | 13.81172 | 100.55083 | 32669 ft | 459 kts | 339° |
| 2026-04-25 07:25 | 13.84082 | 100.53783 | 33215 ft | 458 kts | 334° |
| 2026-04-25 07:25 | 13.86873 | 100.52218 | 33743 ft | 457 kts | 329° |
| 2026-04-25 07:25 | 13.89612 | 100.50523 | 34256 ft | 456 kts | 330° |
| 2026-04-25 07:26 | 13.92287 | 100.49025 | 34721 ft | 455 kts | 333° |
| 2026-04-25 07:26 | 13.95012 | 100.47689 | 35167 ft | 455 kts | 336° |
| 2026-04-25 07:26 | 13.97944 | 100.46454 | 35616 ft | 454 kts | 340° |
| 2026-04-25 07:26 | 14.00891 | 100.45406 | 36034 ft | 453 kts | 342° |
| 2026-04-25 07:27 | 14.03890 | 100.44443 | 36428 ft | 452 kts | 343° |
| 2026-04-25 07:27 | 14.06889 | 100.43497 | 36780 ft | 452 kts | 343° |
| 2026-04-25 07:27 | 14.09868 | 100.42559 | 37096 ft | 452 kts | 343° |
| 2026-04-25 07:27 | 14.12901 | 100.41603 | 37398 ft | 452 kts | 343° |
| 2026-04-25 07:28 | 14.15873 | 100.40665 | 37683 ft | 452 kts | 343° |
| 2026-04-25 07:28 | 14.18875 | 100.39713 | 37924 ft | 453 kts | 343° |
| 2026-04-25 07:28 | 14.24933 | 100.37790 | 37975 ft | 463 kts | 343° |
| 2026-04-25 07:29 | 14.31066 | 100.35847 | 37976 ft | 464 kts | 343° |
| 2026-04-25 07:29 | 14.37228 | 100.33873 | 37976 ft | 464 kts | 342° |
| 2026-04-25 07:30 | 14.43356 | 100.31883 | 37976 ft | 464 kts | 341° |
| 2026-04-25 07:30 | 14.49336 | 100.29442 | 37976 ft | 464 kts | 335° |
| 2026-04-25 07:31 | 14.55120 | 100.26551 | 37976 ft | 464 kts | 334° |
| 2026-04-25 07:31 | 14.60920 | 100.23609 | 37976 ft | 464 kts | 334° |
| 2026-04-25 07:32 | 14.66800 | 100.20904 | 37977 ft | 464 kts | 339° |
| 2026-04-25 07:32 | 14.72900 | 100.18766 | 37977 ft | 464 kts | 342° |
| 2026-04-25 07:33 | 14.79002 | 100.16752 | 37976 ft | 464 kts | 342° |
| 2026-04-25 07:33 | 14.85124 | 100.14723 | 37976 ft | 464 kts | 342° |
| 2026-04-25 07:34 | 14.91247 | 100.12685 | 37976 ft | 464 kts | 342° |
| 2026-04-25 07:34 | 14.97389 | 100.10637 | 37976 ft | 464 kts | 342° |
| 2026-04-25 07:35 | 15.03523 | 100.08594 | 37976 ft | 464 kts | 342° |
| 2026-04-25 07:35 | 15.09669 | 100.06550 | 37976 ft | 464 kts | 342° |
| 2026-04-25 07:36 | 15.15764 | 100.04527 | 37976 ft | 464 kts | 342° |
| 2026-04-25 07:36 | 15.21931 | 100.02479 | 37976 ft | 464 kts | 342° |
| 2026-04-25 07:37 | 15.28020 | 100.00449 | 37976 ft | 464 kts | 342° |
| 2026-04-25 07:37 | 15.34152 | 99.98402 | 37976 ft | 464 kts | 342° |
| 2026-04-25 07:38 | 15.40292 | 99.96352 | 37976 ft | 464 kts | 342° |
| 2026-04-25 07:38 | 15.46417 | 99.94303 | 37976 ft | 464 kts | 342° |
| 2026-04-25 07:39 | 15.52531 | 99.92257 | 37976 ft | 464 kts | 342° |
| 2026-04-25 07:39 | 15.58642 | 99.90211 | 37976 ft | 464 kts | 342° |
| 2026-04-25 07:40 | 15.64794 | 99.88149 | 37976 ft | 464 kts | 342° |
| 2026-04-25 07:40 | 15.70899 | 99.86103 | 37976 ft | 464 kts | 342° |
| 2026-04-25 07:41 | 15.77019 | 99.84050 | 37976 ft | 464 kts | 342° |
| 2026-04-25 07:41 | 15.83161 | 99.81988 | 37976 ft | 464 kts | 342° |
| 2026-04-25 07:42 | 15.89267 | 99.79937 | 37976 ft | 464 kts | 342° |
| 2026-04-25 07:42 | 15.95416 | 99.77869 | 37976 ft | 464 kts | 342° |
| 2026-04-25 07:43 | 16.01540 | 99.75809 | 37976 ft | 464 kts | 342° |
| 2026-04-25 07:43 | 16.07659 | 99.73749 | 37976 ft | 464 kts | 342° |
| 2026-04-25 07:44 | 16.13782 | 99.71690 | 37976 ft | 464 kts | 342° |
| 2026-04-25 07:44 | 16.19919 | 99.69628 | 37976 ft | 464 kts | 342° |
| 2026-04-25 07:45 | 16.26002 | 99.67574 | 37976 ft | 464 kts | 342° |
| 2026-04-25 07:45 | 16.32130 | 99.65501 | 37976 ft | 464 kts | 342° |
| 2026-04-25 07:46 | 16.38272 | 99.63433 | 37976 ft | 464 kts | 342° |
| 2026-04-25 07:46 | 16.44368 | 99.61384 | 37896 ft | 455 kts | 342° |
| 2026-04-25 07:47 | 16.47335 | 99.60383 | 37534 ft | 449 kts | 342° |
| 2026-04-25 07:47 | 16.50271 | 99.59390 | 36988 ft | 446 kts | 342° |
| 2026-04-25 07:47 | 16.53193 | 99.58402 | 36465 ft | 443 kts | 342° |
| 2026-04-25 07:47 | 16.56119 | 99.57412 | 35893 ft | 441 kts | 342° |
| 2026-04-25 07:48 | 16.58997 | 99.56436 | 35254 ft | 441 kts | 342° |
| 2026-04-25 07:48 | 16.61933 | 99.55441 | 34547 ft | 442 kts | 342° |
| 2026-04-25 07:48 | 16.64850 | 99.54451 | 33821 ft | 444 kts | 342° |
| 2026-04-25 07:48 | 16.67773 | 99.53461 | 33088 ft | 446 kts | 342° |
| 2026-04-25 07:49 | 16.70695 | 99.52472 | 32351 ft | 447 kts | 342° |
| 2026-04-25 07:49 | 16.73665 | 99.51472 | 31594 ft | 449 kts | 342° |
| 2026-04-25 07:49 | 16.76639 | 99.50472 | 30824 ft | 450 kts | 342° |
| 2026-04-25 07:49 | 16.79592 | 99.49474 | 30046 ft | 452 kts | 342° |
| 2026-04-25 07:50 | 16.82571 | 99.48467 | 29245 ft | 453 kts | 342° |
| 2026-04-25 07:50 | 16.85545 | 99.47459 | 28428 ft | 455 kts | 342° |
| 2026-04-25 07:50 | 16.88544 | 99.46443 | 27585 ft | 456 kts | 342° |
| 2026-04-25 07:50 | 16.91558 | 99.45420 | 26725 ft | 458 kts | 342° |
| 2026-04-25 07:51 | 16.94579 | 99.44395 | 25828 ft | 460 kts | 342° |
| 2026-04-25 07:51 | 16.97592 | 99.43372 | 24970 ft | 460 kts | 342° |
| 2026-04-25 07:51 | 17.00623 | 99.42342 | 24358 ft | 454 kts | 342° |
| 2026-04-25 07:51 | 17.03591 | 99.41333 | 23763 ft | 448 kts | 342° |
| 2026-04-25 07:52 | 17.06545 | 99.40329 | 23126 ft | 444 kts | 342° |
| 2026-04-25 07:52 | 17.09430 | 99.39347 | 22492 ft | 440 kts | 342° |
| 2026-04-25 07:52 | 17.12343 | 99.38357 | 21854 ft | 436 kts | 342° |
| 2026-04-25 07:52 | 17.15180 | 99.37397 | 21234 ft | 432 kts | 342° |
| 2026-04-25 07:53 | 17.18024 | 99.36432 | 20612 ft | 428 kts | 342° |
| 2026-04-25 07:53 | 17.20825 | 99.35480 | 19999 ft | 424 kts | 342° |
| 2026-04-25 07:53 | 17.23572 | 99.34543 | 19392 ft | 420 kts | 341° |
| 2026-04-25 07:53 | 17.26347 | 99.33583 | 18773 ft | 416 kts | 341° |
| 2026-04-25 07:54 | 17.29075 | 99.32640 | 18163 ft | 412 kts | 341° |
| 2026-04-25 07:54 | 17.31749 | 99.31721 | 17561 ft | 409 kts | 342° |
| 2026-04-25 07:54 | 17.34432 | 99.30801 | 16955 ft | 405 kts | 342° |
| 2026-04-25 07:54 | 17.37093 | 99.29891 | 16350 ft | 401 kts | 342° |
| 2026-04-25 07:55 | 17.39726 | 99.28993 | 15748 ft | 398 kts | 342° |
| 2026-04-25 07:55 | 17.42353 | 99.28097 | 15145 ft | 394 kts | 342° |
| 2026-04-25 07:55 | 17.44943 | 99.27246 | 14548 ft | 391 kts | 343° |
| 2026-04-25 07:55 | 17.47564 | 99.26518 | 13951 ft | 388 kts | 346° |
| 2026-04-25 07:56 | 17.50147 | 99.25865 | 13377 ft | 384 kts | 346° |
| 2026-04-25 07:56 | 17.52745 | 99.25217 | 13054 ft | 382 kts | 346° |
| 2026-04-25 07:56 | 17.55316 | 99.24577 | 12947 ft | 383 kts | 346° |
| 2026-04-25 07:56 | 17.57882 | 99.23936 | 12720 ft | 377 kts | 346° |
| 2026-04-25 07:57 | 17.60425 | 99.23299 | 12363 ft | 378 kts | 346° |
| 2026-04-25 07:57 | 17.62983 | 99.22659 | 12136 ft | 378 kts | 346° |
| 2026-04-25 07:57 | 17.65535 | 99.22019 | 11911 ft | 377 kts | 346° |
| 2026-04-25 07:57 | 17.68083 | 99.21380 | 11686 ft | 376 kts | 346° |
| 2026-04-25 07:58 | 17.70591 | 99.20750 | 11463 ft | 375 kts | 346° |
| 2026-04-25 07:58 | 17.73135 | 99.20112 | 11237 ft | 373 kts | 346° |
| 2026-04-25 07:58 | 17.75625 | 99.19486 | 11012 ft | 367 kts | 346° |
| 2026-04-25 07:58 | 17.78042 | 99.18879 | 10790 ft | 354 kts | 346° |
| 2026-04-25 07:59 | 17.80419 | 99.18281 | 10560 ft | 342 kts | 346° |
| 2026-04-25 07:59 | 17.82660 | 99.17718 | 10340 ft | 331 kts | 346° |
| 2026-04-25 07:59 | 17.84891 | 99.17156 | 10110 ft | 321 kts | 346° |
| 2026-04-25 07:59 | 17.87008 | 99.16625 | 9890 ft | 316 kts | 346° |
| 2026-04-25 08:00 | 17.89149 | 99.16085 | 9664 ft | 316 kts | 346° |
| 2026-04-25 08:00 | 17.91268 | 99.15552 | 9441 ft | 315 kts | 346° |
| 2026-04-25 08:00 | 17.93402 | 99.15015 | 9212 ft | 309 kts | 346° |
| 2026-04-25 08:00 | 17.95453 | 99.14498 | 8991 ft | 306 kts | 346° |
| 2026-04-25 08:01 | 17.97525 | 99.13976 | 8765 ft | 305 kts | 346° |
| 2026-04-25 08:01 | 17.99583 | 99.13458 | 8540 ft | 304 kts | 346° |
| 2026-04-25 08:01 | 18.01623 | 99.12944 | 8316 ft | 303 kts | 346° |
| 2026-04-25 08:01 | 18.03631 | 99.12354 | 8091 ft | 302 kts | 340° |
| 2026-04-25 08:02 | 18.05585 | 99.11568 | 7867 ft | 301 kts | 338° |
| 2026-04-25 08:02 | 18.07509 | 99.10747 | 7643 ft | 300 kts | 338° |
| 2026-04-25 08:02 | 18.09444 | 99.09927 | 7459 ft | 299 kts | 338° |
| 2026-04-25 08:02 | 18.11373 | 99.09123 | 7283 ft | 296 kts | 339° |
| 2026-04-25 08:03 | 18.13262 | 99.08349 | 7104 ft | 287 kts | 339° |
| 2026-04-25 08:03 | 18.15099 | 99.07599 | 6928 ft | 276 kts | 339° |
| 2026-04-25 08:03 | 18.16834 | 99.06892 | 6735 ft | 261 kts | 339° |
| 2026-04-25 08:03 | 18.18468 | 99.06228 | 6553 ft | 245 kts | 339° |
| 2026-04-25 08:04 | 18.20001 | 99.05605 | 6371 ft | 230 kts | 339° |
| 2026-04-25 08:04 | 18.21458 | 99.05012 | 6187 ft | 217 kts | 339° |
| 2026-04-25 08:04 | 18.22827 | 99.04455 | 6013 ft | 209 kts | 339° |
| 2026-04-25 08:04 | 18.24169 | 99.03909 | 5835 ft | 203 kts | 339° |
| 2026-04-25 08:05 | 18.25478 | 99.03376 | 5655 ft | 198 kts | 339° |
| 2026-04-25 08:05 | 18.26734 | 99.02865 | 5477 ft | 193 kts | 339° |
| 2026-04-25 08:05 | 18.27981 | 99.02357 | 5296 ft | 188 kts | 339° |
| 2026-04-25 08:05 | 18.29191 | 99.01865 | 5115 ft | 184 kts | 339° |
| 2026-04-25 08:06 | 18.30365 | 99.01386 | 4939 ft | 181 kts | 339° |
| 2026-04-25 08:06 | 18.31538 | 99.00909 | 4765 ft | 181 kts | 339° |
| 2026-04-25 08:06 | 18.32709 | 99.00431 | 4599 ft | 180 kts | 339° |
| 2026-04-25 08:06 | 18.33884 | 98.99953 | 4432 ft | 181 kts | 339° |
| 2026-04-25 08:07 | 18.35092 | 98.99461 | 4261 ft | 205 kts | 339° |
| 2026-04-25 08:07 | 18.36455 | 98.98905 | 4084 ft | 211 kts | 339° |
| 2026-04-25 08:07 | 18.37824 | 98.98348 | 3909 ft | 210 kts | 339° |
| 2026-04-25 08:07 | 18.39182 | 98.97796 | 3735 ft | 210 kts | 339° |
| 2026-04-25 08:08 | 18.40549 | 98.97239 | 3559 ft | 209 kts | 339° |
| 2026-04-25 08:08 | 18.41894 | 98.96696 | 3411 ft | 208 kts | 342° |
| 2026-04-25 08:08 | 18.43306 | 98.96328 | 3391 ft | 209 kts | 352° |
| 2026-04-25 08:08 | 18.44746 | 98.96231 | 3388 ft | 209 kts | 359° |
| 2026-04-25 08:09 | 18.46210 | 98.96231 | 3386 ft | 209 kts | 0° |
| 2026-04-25 08:09 | 18.47655 | 98.96244 | 3395 ft | 209 kts | 0° |
| 2026-04-25 08:09 | 18.49101 | 98.96255 | 3388 ft | 209 kts | 0° |
| 2026-04-25 08:09 | 18.50554 | 98.96265 | 3386 ft | 209 kts | 0° |
| 2026-04-25 08:10 | 18.52005 | 98.96272 | 3386 ft | 209 kts | 0° |
| 2026-04-25 08:10 | 18.53468 | 98.96276 | 3385 ft | 209 kts | 360° |
| 2026-04-25 08:10 | 18.54917 | 98.96270 | 3375 ft | 209 kts | 360° |
| 2026-04-25 08:10 | 18.56380 | 98.96263 | 3384 ft | 209 kts | 360° |
| 2026-04-25 08:11 | 18.57829 | 98.96260 | 3385 ft | 209 kts | 360° |
| 2026-04-25 08:11 | 18.59273 | 98.96261 | 3387 ft | 209 kts | 0° |
| 2026-04-25 08:11 | 18.60718 | 98.96262 | 3388 ft | 209 kts | 0° |
| 2026-04-25 08:11 | 18.62170 | 98.96265 | 3378 ft | 208 kts | 0° |
| 2026-04-25 08:12 | 18.63558 | 98.96268 | 3291 ft | 188 kts | 0° |
| 2026-04-25 08:12 | 18.64824 | 98.96270 | 3062 ft | 175 kts | 0° |
| 2026-04-25 08:12 | 18.65988 | 98.96272 | 2824 ft | 163 kts | 0° |
| 2026-04-25 08:12 | 18.67074 | 98.96275 | 2611 ft | 154 kts | 0° |
| 2026-04-25 08:13 | 18.68144 | 98.96277 | 2417 ft | 154 kts | 0° |
| 2026-04-25 08:13 | 18.69220 | 98.96278 | 2218 ft | 154 kts | 0° |
| 2026-04-25 08:13 | 18.70285 | 98.96281 | 2019 ft | 153 kts | 0° |
| 2026-04-25 08:14 | 18.72407 | 98.96285 | 1620 ft | 152 kts | 0° |
| 2026-04-25 08:14 | 18.73459 | 98.96290 | 1422 ft | 152 kts | 1° |
| 2026-04-25 08:14 | 18.74516 | 98.96300 | 1204 ft | 151 kts | 360° |
| 2026-04-25 08:14 | 18.75562 | 98.96291 | 1041 ft | 146 kts | 359° |
| 2026-04-25 08:15 | 18.76429 | 98.96295 | 1025 ft | 91 kts | 0° |
| 2026-04-25 08:15 | 18.76797 | 98.96295 | 1030 ft | 25 kts | 358° |
| 2026-04-25 08:15 | 18.76891 | 98.96296 | 1032 ft | 20 kts | 1° |
| 2026-04-25 08:15 | 18.77021 | 98.96299 | 1035 ft | 0 kts | 1° |
| 2026-04-25 08:16 | 18.77039 | 98.96299 | 1035 ft | 2 kts | 1° |
| 2026-04-25 08:16 | 18.77083 | 98.96304 | 1036 ft | 14 kts | 11° |
| 2026-04-25 08:16 | 18.77171 | 98.96384 | 1036 ft | 22 kts | 80° |
| 2026-04-25 08:17 | 18.77124 | 98.96556 | 1032 ft | 13 kts | 123° |
| 2026-04-25 08:17 | 18.77116 | 98.96568 | 1031 ft | 0 kts | 126° |
| 2026-04-25 08:17 | 18.77111 | 98.96575 | 1031 ft | 1 kts | 126° |
| 2026-04-25 08:18 | 18.77077 | 98.96619 | 1030 ft | 11 kts | 131° |
| 2026-04-25 08:18 | 18.77040 | 98.96661 | 1028 ft | 0 kts | 133° |
| 2026-04-25 08:18 | 18.77038 | 98.96664 | 1028 ft | 3 kts | 128° |
| 2026-04-25 08:18 | 18.77034 | 98.96690 | 1027 ft | 0 kts | 68° |
| 2026-04-25 08:19 | 18.77037 | 98.96695 | 1028 ft | 0 kts | 71° |